Time;durP1;ratioP1;P1;durP2;ratioP2;P2;SDS_P1;SDS_P2;PMS_P1;PMS_P2;Temp;Humidity;BMP_temperature;BMP_pressure;BME280_temperature;BME280_humidity;BME280_pressure;Samples;Min_cycle;Max_cycle;Signal;HPM_P1;HPM_P2
2024/02/23 00:00:41;;;;;;;;;;;;;;;16.85;46.40;100832.28;5038493;28;1063;-51
2024/02/23 00:03:08;;;;;;;;;;;;;;;16.61;45.95;100832.81;5038169;28;1079;-47
2024/02/23 00:05:33;;;;;;;;;;;;;;;17.65;45.12;100828.91;5038390;28;1042;-44
2024/02/23 00:07:59;;;;;;;;;;;;;;;16.84;46.35;100830.63;5038325;28;1050;-48
2024/02/23 00:10:25;;;;;;;;;;;;;;;16.48;46.07;100828.66;5038724;28;1914;-47
2024/02/23 00:12:51;;;;;;;;;;;;;;;18.12;44.43;100815.84;5037392;28;1075;-46
2024/02/23 00:15:17;;;;;;;;;;;;;;;16.95;46.44;100815.81;5038147;28;1055;-49
2024/02/23 00:17:43;;;;;;;;;;;;;;;17.37;45.67;100809.19;5037997;28;1043;-49
2024/02/23 00:20:10;;;;;;;;;;;;;;;17.77;44.62;100812.91;5030957;28;2239;-45
2024/02/23 00:22:36;;;;;;;;;;;;;;;16.83;46.18;100813.34;5036477;28;1162;-51
2024/02/23 00:25:01;;;;;;;;;;;;;;;16.74;46.19;100815.78;5026265;28;1059;-48
2024/02/23 00:27:27;;;;;;;;;;;;;;;17.65;44.84;100806.91;5037659;28;1143;-52
2024/02/23 00:29:53;;;;;;;;;;;;;;;16.84;46.42;100803.16;5036003;28;1109;-54
2024/02/23 00:32:18;;;;;;;;;;;;;;;16.97;46.37;100805.41;5037611;28;1906;-51
2024/02/23 00:34:44;;;;;;;;;;;;;;;17.89;44.49;100795.25;5037691;28;979;-45
2024/02/23 00:37:09;;;;;;;;;;;;;;;16.98;45.86;100798.78;5037984;28;1128;-47
2024/02/23 00:39:36;;;;;;;;;;;;;;;16.73;46.37;100794.09;5037927;28;1071;-50
2024/02/23 00:42:02;;;;;;;;;;;;;;;17.85;44.34;100799.69;5037620;28;1110;-48
2024/02/23 00:44:27;;;;;;;;;;;;;;;16.96;46.23;100794.66;5040252;28;1154;-52
2024/02/23 00:46:53;;;;;;;;;;;;;;;16.64;45.81;100799.31;5035833;28;1072;-48
2024/02/23 00:49:19;;;;;;;;;;;;;;;18.34;43.41;100784.31;5032694;28;2564;-51
2024/02/23 00:51:44;;;;;;;;;;;;;;;17.10;45.77;100788.34;5031444;28;1981;-47
2024/02/23 00:54:10;;;;;;;;;;;;;;;17.18;46.04;100786.97;5031054;28;1130;-49
2024/02/23 00:56:35;;;;;;;;;;;;;;;17.60;44.89;100782.19;5037451;28;1248;-46
2024/02/23 00:59:01;;;;;;;;;;;;;;;16.88;46.02;100779.53;5037033;28;910;-53
2024/02/23 01:01:28;;;;;;;;;;;;;;;16.64;45.87;100771.84;5037542;28;1100;-49
2024/02/23 01:03:54;;;;;;;;;;;;;;;18.19;43.64;100768.72;5024497;28;1119;-52
2024/02/23 01:06:19;;;;;;;;;;;;;;;17.09;45.92;100767.44;5024317;28;1136;-49
2024/02/23 01:08:45;;;;;;;;;;;;;;;16.58;46.05;100771.03;5037472;28;1135;-49
2024/02/23 01:11:10;;;;;;;;;;;;;;;17.56;45.21;100767.34;5036895;28;1975;-50
2024/02/23 01:13:36;;;;;;;;;;;;;;;17.37;45.51;100775.38;5037414;28;1154;-49
2024/02/23 01:16:02;;;;;;;;;;;;;;;16.73;46.36;100759.22;5023765;28;1046;-52
2024/02/23 01:18:27;;;;;;;;;;;;;;;17.13;46.16;100759.50;5036893;28;2497;-48
2024/02/23 01:20:53;;;;;;;;;;;;;;;17.94;44.04;100760.31;5036461;28;976;-54
2024/02/23 01:23:19;;;;;;;;;;;;;;;16.97;45.92;100761.44;5033322;28;926;-53
2024/02/23 01:25:44;;;;;;;;;;;;;;;16.84;46.33;100756.47;5036871;28;999;-51
2024/02/23 01:28:10;;;;;;;;;;;;;;;18.36;43.36;100746.34;5036461;28;1075;-49
2024/02/23 01:30:35;;;;;;;;;;;;;;;17.12;45.85;100744.09;5036303;28;1898;-50
2024/02/23 01:33:01;;;;;;;;;;;;;;;16.74;45.95;100740.81;5036931;28;1155;-51
2024/02/23 01:35:27;;;;;;;;;;;;;;;16.56;45.79;100725.72;5036485;28;896;-56
2024/02/23 01:37:53;;;;;;;;;;;;;;;17.23;45.65;100726.47;5036871;28;1201;-55
2024/02/23 01:40:19;;;;;;;;;;;;;;;17.08;45.84;100727.38;5035769;28;1431;-53
2024/02/23 01:42:45;;;;;;;;;;;;;;;16.57;46.28;100717.22;5036671;28;1126;-56
2024/02/23 01:45:10;;;;;;;;;;;;;;;17.33;45.63;100720.13;5036360;28;1210;-55
2024/02/23 01:47:36;;;;;;;;;;;;;;;16.85;46.33;100716.94;5036294;28;1418;-52
2024/02/23 01:50:02;;;;;;;;;;;;;;;16.53;46.28;100720.78;5068818;28;1182;-54
2024/02/23 01:52:27;;;;;;;;;;;;;;;17.87;44.34;100714.97;5036746;28;1988;-56
2024/02/23 01:54:53;;;;;;;;;;;;;;;16.80;46.57;100717.75;5036243;28;1206;-55
2024/02/23 01:57:18;;;;;;;;;;;;;;;16.99;46.37;100711.72;5036872;28;1107;-56
2024/02/23 01:59:44;;;;;;;;;;;;;;;17.45;45.16;100709.66;5031925;28;1147;-53
2024/02/23 02:02:09;;;;;;;;;;;;;;;16.66;46.35;100714.75;5019765;28;1389;-56
2024/02/23 02:04:35;;;;;;;;;;;;;;;17.70;45.18;100712.59;5029523;28;1152;-57
2024/02/23 02:07:01;;;;;;;;;;;;;;;17.30;45.40;100706.94;5028729;28;1013;-56
2024/02/23 02:09:26;;;;;;;;;;;;;;;16.70;46.32;100712.28;5023061;28;1051;-56
2024/02/23 02:11:52;;;;;;;;;;;;;;;16.52;46.23;100717.25;5036294;28;1910;-55
2024/02/23 02:14:18;;;;;;;;;;;;;;;18.31;43.45;100711.38;5031106;28;1118;-56
2024/02/23 02:16:46;;;;;;;;;;;;;;;17.12;45.80;100721.31;5036122;28;1191;-55
2024/02/23 02:19:12;;;;;;;;;;;;;;;16.57;46.13;100713.66;5023592;28;1039;-56
2024/02/23 02:21:37;;;;;;;;;;;;;;;16.70;46.48;100715.03;5036210;28;1210;-57
2024/02/23 02:24:03;;;;;;;;;;;;;;;17.58;44.95;100712.91;5036229;28;910;-55
2024/02/23 02:26:29;;;;;;;;;;;;;;;16.75;46.28;100717.78;5035404;28;910;-56
2024/02/23 02:28:55;;;;;;;;;;;;;;;18.05;44.25;100722.59;5023470;28;1107;-55
2024/02/23 02:31:20;;;;;;;;;;;;;;;17.23;45.60;100715.50;5035560;28;1969;-55
2024/02/23 02:33:46;;;;;;;;;;;;;;;16.70;46.17;100715.84;5035882;28;1000;-57
2024/02/23 02:36:11;;;;;;;;;;;;;;;17.59;44.98;100709.88;5034388;28;1032;-55
2024/02/23 02:38:37;;;;;;;;;;;;;;;17.22;45.62;100711.13;5036092;28;1145;-54
2024/02/23 02:41:03;;;;;;;;;;;;;;;16.71;45.94;100705.69;5022887;28;1040;-54
2024/02/23 02:43:28;;;;;;;;;;;;;;;17.53;45.19;100696.41;5036430;28;1047;-56
2024/02/23 02:45:54;;;;;;;;;;;;;;;17.07;45.66;100709.22;5030537;28;1091;-54
2024/02/23 02:48:20;;;;;;;;;;;;;;;16.64;46.03;100700.47;5031455;28;1962;-56
2024/02/23 02:50:45;;;;;;;;;;;;;;;16.97;46.18;100695.53;5032651;28;1894;-55
2024/02/23 02:53:11;;;;;;;;;;;;;;;17.22;45.69;100688.28;5036196;28;1174;-55
2024/02/23 02:55:37;;;;;;;;;;;;;;;17.22;45.85;100694.63;5035899;28;1151;-55
2024/02/23 02:58:02;;;;;;;;;;;;;;;18.81;42.20;100701.03;5035273;28;1134;-56
2024/02/23 03:00:28;;;;;;;;;;;;;;;17.44;45.19;100691.50;5035344;28;959;-54
2024/02/23 03:02:53;;;;;;;;;;;;;;;16.95;45.75;100705.94;5035890;28;1056;-56
2024/02/23 03:05:19;;;;;;;;;;;;;;;16.66;45.88;100695.53;5022752;28;1082;-55
2024/02/23 03:07:45;;;;;;;;;;;;;;;18.35;43.26;100700.63;5035611;28;1171;-54
2024/02/23 03:10:10;;;;;;;;;;;;;;;17.12;45.61;100699.31;5035735;28;1265;-55
2024/02/23 03:12:36;;;;;;;;;;;;;;;16.67;46.04;100710.91;5035252;28;1972;-52
2024/02/23 03:15:05;;;;;;;;;;;;;;;18.17;43.79;100707.66;5022495;28;1072;-55
2024/02/23 03:17:31;;;;;;;;;;;;;;;17.15;45.46;100712.50;5035490;28;1060;-56
2024/02/23 03:19:57;;;;;;;;;;;;;;;16.69;46.04;100711.47;5036049;28;1117;-59
2024/02/23 03:22:23;;;;;;;;;;;;;;;16.92;45.91;100703.75;5035769;28;1059;-57
2024/02/23 03:24:48;;;;;;;;;;;;;;;17.64;44.92;100700.75;5029794;28;1067;-58
2024/02/23 03:27:14;;;;;;;;;;;;;;;16.80;46.23;100709.50;5015427;28;1224;-58
2024/02/23 03:29:39;;;;;;;;;;;;;;;17.97;44.26;100706.66;5034913;28;1182;-58
2024/02/23 03:32:06;;;;;;;;;;;;;;;17.29;45.49;100702.56;5034815;28;1976;-58
2024/02/23 03:34:31;;;;;;;;;;;;;;;16.79;45.93;100701.53;5034927;28;1234;-56
2024/02/23 03:36:58;;;;;;;;;;;;;;;16.56;45.98;100704.63;5035968;28;1103;-58
2024/02/23 03:39:24;;;;;;;;;;;;;;;17.80;44.44;100696.00;5035343;28;1063;-57
2024/02/23 03:41:49;;;;;;;;;;;;;;;16.97;46.19;100698.28;5035309;28;1134;-58
2024/02/23 03:44:15;;;;;;;;;;;;;;;16.66;46.25;100698.28;5022525;28;1215;-57
2024/02/23 03:46:40;;;;;;;;;;;;;;;17.85;44.54;100686.91;5035252;28;1067;-57
2024/02/23 03:49:06;;;;;;;;;;;;;;;17.12;45.80;100682.84;5024769;28;1103;-57
2024/02/23 03:51:36;;;;;;;;;;;;;;;16.71;45.87;100681.78;5039178;28;1901;-55
2024/02/23 03:54:03;;;;;;;;;;;;;;;16.52;45.74;100680.72;5026474;28;1055;-57
2024/02/23 03:56:28;;;;;;;;;;;;;;;16.62;45.89;100691.69;5025588;28;1057;-57
2024/02/23 03:58:54;;;;;;;;;;;;;;;18.04;44.01;100687.91;5025194;28;1009;-57
2024/02/23 04:01:19;;;;;;;;;;;;;;;16.82;46.53;100695.53;5035148;28;1063;-53
2024/02/23 04:03:45;;;;;;;;;;;;;;;16.56;46.08;100684.56;5038129;28;1321;-57
2024/02/23 04:06:10;;;;;;;;;;;;;;;18.28;43.57;100685.25;5038154;28;1230;-51
2024/02/23 04:08:36;;;;;;;;;;;;;;;17.30;45.35;100681.41;5025189;28;1087;-53
2024/02/23 04:11:02;;;;;;;;;;;;;;;16.76;46.04;100680.97;5038309;28;1910;-52
2024/02/23 04:13:28;;;;;;;;;;;;;;;17.32;45.60;100682.78;5025379;28;1169;-58
2024/02/23 04:15:54;;;;;;;;;;;;;;;17.47;44.91;100678.31;5026299;28;1150;-60
2024/02/23 04:18:19;;;;;;;;;;;;;;;16.82;46.21;100673.56;5024344;28;1076;-60
2024/02/23 04:20:45;;;;;;;;;;;;;;;17.15;45.86;100665.78;5037665;28;1175;-59
2024/02/23 04:23:10;;;;;;;;;;;;;;;17.32;45.56;100666.28;5038146;28;1063;-58
2024/02/23 04:25:36;;;;;;;;;;;;;;;16.75;46.33;100674.66;5038464;28;1134;-57
2024/02/23 04:28:02;;;;;;;;;;;;;;;16.52;45.87;100664.25;5038166;28;1395;-58
2024/02/23 04:30:27;;;;;;;;;;;;;;;17.88;44.50;100675.31;5030334;28;1906;-56
2024/02/23 04:32:53;;;;;;;;;;;;;;;16.82;46.22;100671.63;5020220;28;1079;-57
2024/02/23 04:35:18;;;;;;;;;;;;;;;16.57;46.02;100670.56;5034017;28;1237;-60
2024/02/23 04:37:45;;;;;;;;;;;;;;;16.79;46.26;100680.41;5038331;28;1118;-57
2024/02/23 04:40:11;;;;;;;;;;;;;;;17.48;45.31;100680.78;5037940;28;1039;-57
2024/02/23 04:42:36;;;;;;;;;;;;;;;16.72;46.41;100680.69;5036552;28;1103;-53
2024/02/23 04:45:02;;;;;;;;;;;;;;;16.41;46.22;100685.38;5036568;28;1372;-51
2024/02/23 04:47:27;;;;;;;;;;;;;;;16.79;46.25;100685.06;5037288;28;1518;-50
2024/02/23 04:49:53;;;;;;;;;;;;;;;17.76;44.56;100681.19;5037507;28;1003;-52
2024/02/23 04:52:19;;;;;;;;;;;;;;;16.77;46.22;100683.44;5037835;28;1975;-53
2024/02/23 04:54:44;;;;;;;;;;;;;;;17.78;44.55;100679.81;5037600;28;1134;-55
2024/02/23 04:57:10;;;;;;;;;;;;;;;17.41;45.32;100677.50;5030565;28;1087;-57
2024/02/23 04:59:35;;;;;;;;;;;;;;;16.65;46.30;100680.16;5030067;28;1142;-59
2024/02/23 05:02:01;;;;;;;;;;;;;;;17.38;45.52;100687.13;5025837;28;1123;-58
2024/02/23 05:04:26;;;;;;;;;;;;;;;17.40;45.08;100684.94;5024456;28;1167;-57
2024/02/23 05:06:52;;;;;;;;;;;;;;;16.76;45.98;100692.78;5037474;28;1151;-57
2024/02/23 05:09:18;;;;;;;;;;;;;;;18.16;43.72;100690.31;5037177;28;1091;-57
2024/02/23 05:11:45;;;;;;;;;;;;;;;17.39;44.99;100694.28;5033154;28;1973;-58
2024/02/23 05:14:11;;;;;;;;;;;;;;;17.65;44.73;100696.09;5035763;28;1242;-58
2024/02/23 05:16:38;;;;;;;;;;;;;;;17.69;44.57;100698.00;5037427;28;1851;-58
2024/02/23 05:19:03;;;;;;;;;;;;;;;17.20;45.52;100696.00;5036714;28;1267;-58
2024/02/23 05:21:29;;;;;;;;;;;;;;;16.93;46.24;100708.97;5037042;28;1037;-56
2024/02/23 05:23:55;;;;;;;;;;;;;;;16.72;46.75;100710.91;5036580;28;1195;-58
2024/02/23 05:26:20;;;;;;;;;;;;;;;16.47;47.14;100702.69;5035882;28;1329;-58
2024/02/23 05:28:46;;;;;;;;;;;;;;;16.33;47.47;100702.41;5037099;28;1023;-58
2024/02/23 05:31:11;;;;;;;;;;;;;;;16.20;47.91;100706.50;5036737;28;1993;-56
2024/02/23 05:33:38;;;;;;;;;;;;;;;16.05;48.19;100710.06;5035979;28;1333;-57
2024/02/23 05:36:04;;;;;;;;;;;;;;;15.93;48.39;100720.44;5032027;28;1090;-57
2024/02/23 05:38:30;;;;;;;;;;;;;;;15.84;48.61;100704.53;5023547;28;1119;-57
2024/02/23 05:40:55;;;;;;;;;;;;;;;15.65;49.03;100715.09;5036955;28;2092;-58
2024/02/23 05:43:21;;;;;;;;;;;;;;;15.52;48.97;100710.16;5036295;28;1100;-58
2024/02/23 05:45:46;;;;;;;;;;;;;;;15.49;49.33;100718.91;5036520;28;1195;-56
2024/02/23 05:48:12;;;;;;;;;;;;;;;15.38;49.36;100712.53;5034308;28;996;-56
2024/02/23 05:50:37;;;;;;;;;;;;;;;16.55;46.88;100707.59;5025505;28;1993;-57
2024/02/23 05:53:04;;;;;;;;;;;;;;;17.30;44.57;100712.44;5035574;28;1277;-58
2024/02/23 05:55:30;;;;;;;;;;;;;;;16.43;46.56;100708.69;5027846;28;1372;-57
2024/02/23 05:57:56;;;;;;;;;;;;;;;16.04;47.80;100714.69;5022843;28;1278;-58
2024/02/23 06:00:21;;;;;;;;;;;;;;;15.81;48.10;100712.44;5036245;28;884;-57
2024/02/23 06:02:47;;;;;;;;;;;;;;;15.69;48.58;100716.22;5024550;28;1031;-58
2024/02/23 06:05:12;;;;;;;;;;;;;;;15.76;48.42;100726.13;5036484;28;1024;-58
2024/02/23 06:07:38;;;;;;;;;;;;;;;17.20;45.00;100723.50;5033990;28;1183;-60
2024/02/23 06:10:04;;;;;;;;;;;;;;;16.99;45.19;100722.72;5025912;28;1127;-59
2024/02/23 06:12:30;;;;;;;;;;;;;;;16.32;46.91;100714.47;5034955;28;2290;-58
2024/02/23 06:14:56;;;;;;;;;;;;;;;15.96;47.91;100717.97;5031708;28;995;-57
2024/02/23 06:17:22;;;;;;;;;;;;;;;15.78;48.18;100722.03;5029270;28;1210;-56
2024/02/23 06:19:48;;;;;;;;;;;;;;;15.66;48.58;100725.00;5030970;28;1061;-58
2024/02/23 06:22:16;;;;;;;;;;;;;;;15.42;49.15;100732.00;5034527;28;1042;-56
2024/02/23 06:24:42;;;;;;;;;;;;;;;16.84;45.77;100726.25;5035158;28;1195;-56
2024/02/23 06:27:08;;;;;;;;;;;;;;;17.57;43.96;100716.75;5035746;28;1151;-55
2024/02/23 06:29:33;;;;;;;;;;;;;;;16.54;46.36;100711.47;5036214;28;1083;-55
2024/02/23 06:32:01;;;;;;;;;;;;;;;16.07;47.63;100725.16;5033388;28;1980;-56
2024/02/23 06:34:26;;;;;;;;;;;;;;;15.86;48.30;100729.75;5033952;28;1318;-57
2024/02/23 06:36:52;;;;;;;;;;;;;;;15.68;48.56;100738.44;5028174;28;1035;-55
2024/02/23 06:39:18;;;;;;;;;;;;;;;16.51;46.82;100733.94;5031052;28;1360;-54
2024/02/23 06:41:43;;;;;;;;;;;;;;;17.66;43.77;100734.31;5028938;28;2557;-50
2024/02/23 06:44:09;;;;;;;;;;;;;;;16.61;46.24;100725.75;5027721;28;1112;-47
2024/02/23 06:46:34;;;;;;;;;;;;;;;16.14;47.28;100724.88;5033638;28;1213;-48
2024/02/23 06:49:00;;;;;;;;;;;;;;;15.88;48.20;100733.03;5035105;28;1330;-49
2024/02/23 06:51:26;;;;;;;;;;;;;;;15.75;48.21;100730.78;5035299;28;1980;-51
2024/02/23 06:53:51;;;;;;;;;;;;;;;15.53;48.71;100726.31;5035169;28;1301;-54
2024/02/23 06:56:17;;;;;;;;;;;;;;;16.22;47.30;100731.75;5030873;28;1199;-54
2024/02/23 06:58:42;;;;;;;;;;;;;;;17.52;44.17;100725.84;5024909;28;1106;-55
2024/02/23 07:01:11;;;;;;;;;;;;;;;16.97;45.38;100724.91;5035389;28;1282;-50
2024/02/23 07:03:36;;;;;;;;;;;;;;;16.29;47.17;100715.03;5034175;28;993;-51
2024/02/23 07:06:03;;;;;;;;;;;;;;;16.03;47.85;100725.94;5034949;28;1255;-53
2024/02/23 07:08:28;;;;;;;;;;;;;;;15.80;48.42;100730.00;5035074;28;1353;-54
2024/02/23 07:10:54;;;;;;;;;;;;;;;15.66;48.63;100718.69;5034791;28;1961;-57
2024/02/23 07:13:20;;;;;;;;;;;;;;;16.35;47.04;100713.94;5035473;28;1019;-50
2024/02/23 07:15:45;;;;;;;;;;;;;;;17.57;44.21;100720.34;5035124;28;1266;-56
2024/02/23 07:18:11;;;;;;;;;;;;;;;16.60;46.05;100710.34;5035718;28;1285;-51
2024/02/23 07:20:37;;;;;;;;;;;;;;;16.15;47.30;100715.56;5035668;28;1307;-55
2024/02/23 07:23:02;;;;;;;;;;;;;;;15.79;48.48;100717.34;5032054;28;1067;-50
2024/02/23 07:25:28;;;;;;;;;;;;;;;15.70;48.49;100720.63;5030477;28;1313;-51
2024/02/23 07:27:53;;;;;;;;;;;;;;;15.57;48.86;100710.16;5038803;28;1076;-58
2024/02/23 07:30:19;;;;;;;;;;;;;;;16.45;46.79;100707.63;5038550;28;1068;-49
2024/02/23 07:32:46;;;;;;;;;;;;;;;17.62;43.92;100713.97;5036722;28;1914;-56
2024/02/23 07:35:11;;;;;;;;;;;;;;;16.68;46.05;100718.03;5037521;28;1451;-52
2024/02/23 07:37:37;;;;;;;;;;;;;;;16.16;47.33;100713.63;5034382;28;1078;-54
2024/02/23 07:40:05;;;;;;;;;;;;;;;15.95;47.80;100710.00;5030740;28;1171;-52
2024/02/23 07:42:37;;;;;;;;;;;;;;;15.67;48.54;100714.84;5037896;28;2420;-55
2024/02/23 07:45:04;;;;;;;;;;;;;;;15.57;48.96;100716.47;5038529;28;1019;-55
2024/02/23 07:47:30;;;;;;;;;;;;;;;15.62;48.76;100718.38;5038463;28;1348;-52
2024/02/23 07:49:55;;;;;;;;;;;;;;;17.15;45.17;100712.50;5037899;28;1075;-55
2024/02/23 07:52:23;;;;;;;;;;;;;;;17.17;44.96;100713.06;5034886;28;1917;-58
2024/02/23 07:54:51;;;;;;;;;;;;;;;16.38;46.84;100713.38;5036022;28;1426;-57
2024/02/23 07:57:17;;;;;;;;;;;;;;;16.08;47.44;100715.81;5036872;28;1005;-57
2024/02/23 07:59:43;;;;;;;;;;;;;;;15.80;48.08;100708.06;5038015;28;1007;-57
2024/02/23 08:02:08;;;;;;;;;;;;;;;15.70;48.52;100717.06;5033084;28;976;-49
2024/02/23 08:04:34;;;;;;;;;;;;;;;16.13;47.38;100711.44;5034807;28;1258;-55
2024/02/23 08:07:00;;;;;;;;;;;;;;;17.43;44.27;100698.13;5043103;28;1106;-57
2024/02/23 08:09:25;;;;;;;;;;;;;;;16.64;46.26;100705.97;5038513;28;1083;-53
2024/02/23 08:11:51;;;;;;;;;;;;;;;16.18;47.17;100703.22;5036298;28;2574;-57
2024/02/23 08:14:16;;;;;;;;;;;;;;;15.86;48.24;100713.28;5037126;28;1266;-56
2024/02/23 08:16:42;;;;;;;;;;;;;;;15.72;48.30;100712.97;5037223;28;1128;-59
2024/02/23 08:19:08;;;;;;;;;;;;;;;15.57;48.73;100710.16;5037404;28;1269;-58
2024/02/23 08:21:33;;;;;;;;;;;;;;;16.87;46.01;100709.22;5038074;28;1051;-58
2024/02/23 08:23:59;;;;;;;;;;;;;;;17.74;43.72;100706.22;5034628;28;1350;-55
2024/02/23 08:26:24;;;;;;;;;;;;;;;16.73;45.88;100707.06;5032998;28;1238;-54
2024/02/23 08:28:50;;;;;;;;;;;;;;;16.22;47.37;100704.31;5033336;28;1028;-53
2024/02/23 08:31:16;;;;;;;;;;;;;;;16.03;47.57;100709.50;5034412;28;1979;-55
2024/02/23 08:33:42;;;;;;;;;;;;;;;15.82;48.21;100716.84;5037222;28;1020;-54
2024/02/23 08:36:07;;;;;;;;;;;;;;;15.73;48.50;100714.59;5043637;28;913;-57
2024/02/23 08:38:33;;;;;;;;;;;;;;;15.78;48.61;100702.84;5034056;28;900;-55
2024/02/23 08:40:59;;;;;;;;;;;;;;;17.22;45.18;100707.53;5036106;28;2470;-50
2024/02/23 08:43:27;;;;;;;;;;;;;;;17.34;44.41;100707.22;5036709;28;1249;-53
2024/02/23 08:45:54;;;;;;;;;;;;;;;16.43;46.52;100707.91;5024435;28;1293;-56
2024/02/23 08:48:20;;;;;;;;;;;;;;;16.05;47.84;100721.84;5043729;28;1092;-49
2024/02/23 08:50:45;;;;;;;;;;;;;;;15.89;48.02;100720.16;5033736;28;2351;-53
2024/02/23 08:53:11;;;;;;;;;;;;;;;15.70;48.43;100719.81;5038408;28;1252;-53
2024/02/23 08:55:37;;;;;;;;;;;;;;;15.57;48.78;100730.16;5036523;28;1285;-54
2024/02/23 08:58:03;;;;;;;;;;;;;;;16.98;45.66;100721.06;5021105;28;1175;-53
2024/02/23 09:00:29;;;;;;;;;;;;;;;17.60;43.92;100716.22;5022843;28;1313;-52
2024/02/23 09:02:54;;;;;;;;;;;;;;;16.57;46.35;100711.72;5036618;28;1309;-47
2024/02/23 09:05:20;;;;;;;;;;;;;;;16.16;47.38;100719.09;5034412;28;1039;-53
2024/02/23 09:07:47;;;;;;;;;;;;;;;16.00;47.86;100716.34;5033649;28;1130;-54
2024/02/23 09:10:13;;;;;;;;;;;;;;;15.88;48.35;100715.78;5029530;28;1119;-57
2024/02/23 09:12:39;;;;;;;;;;;;;;;15.69;48.83;100718.97;5019144;28;1975;-56
2024/02/23 09:15:05;;;;;;;;;;;;;;;15.51;49.13;100719.44;5036379;28;1056;-54
2024/02/23 09:17:31;;;;;;;;;;;;;;;16.70;46.49;100721.31;5037278;28;1092;-54
2024/02/23 09:19:57;;;;;;;;;;;;;;;17.68;43.88;100723.84;5036635;28;1321;-54
2024/02/23 09:22:23;;;;;;;;;;;;;;;16.64;46.32;100722.44;5017948;28;1278;-48
2024/02/23 09:24:49;;;;;;;;;;;;;;;16.16;47.46;100728.19;5031072;28;1262;-53
2024/02/23 09:27:15;;;;;;;;;;;;;;;16.07;47.99;100718.81;5036984;28;1005;-56
2024/02/23 09:29:42;;;;;;;;;;;;;;;15.82;48.44;100716.84;5036675;28;1178;-55
2024/02/23 09:32:08;;;;;;;;;;;;;;;15.69;48.64;100712.66;5036745;28;1913;-54
2024/02/23 09:34:34;;;;;;;;;;;;;;;15.83;48.45;100713.03;5036790;28;995;-55
2024/02/23 09:36:59;;;;;;;;;;;;;;;17.31;44.83;100703.13;5035868;28;1130;-53
2024/02/23 09:39:28;;;;;;;;;;;;;;;17.23;45.08;100692.69;5030804;28;840;-50
2024/02/23 09:41:54;;;;;;;;;;;;;;;16.43;47.08;100691.44;5029073;28;2698;-52
2024/02/23 09:44:21;;;;;;;;;;;;;;;16.11;47.69;100687.00;5033395;28;1135;-51
2024/02/23 09:46:47;;;;;;;;;;;;;;;15.94;48.25;100690.00;5034473;28;1122;-54
2024/02/23 09:49:13;;;;;;;;;;;;;;;15.78;48.40;100688.28;5037216;28;1007;-52
2024/02/23 09:51:40;;;;;;;;;;;;;;;15.65;48.75;100678.66;5036350;28;1915;-54
2024/02/23 09:54:06;;;;;;;;;;;;;;;17.12;45.41;100677.34;5027761;28;1140;-56
2024/02/23 09:56:33;;;;;;;;;;;;;;;17.38;44.69;100681.66;5025540;28;1087;-53
2024/02/23 09:59:00;;;;;;;;;;;;;;;16.55;46.92;100680.16;5027996;28;1159;-50
2024/02/23 10:01:30;;;;;;;;;;;;;;;16.14;47.54;100680.16;5031424;28;1016;-54
2024/02/23 10:03:58;;;;;;;;;;;;;;;15.90;48.43;100686.16;5033117;28;1111;-52
2024/02/23 10:06:26;;;;;;;;;;;;;;;15.84;48.40;100681.78;5033849;28;1063;-54
2024/02/23 10:08:53;;;;;;;;;;;;;;;15.64;49.01;100680.59;5021235;28;1170;-50
2024/02/23 10:11:23;;;;;;;;;;;;;;;16.04;48.22;100670.81;5022479;28;1961;-54
2024/02/23 10:13:54;;;;;;;;;;;;;;;17.41;44.59;100659.09;5028926;28;1200;-55
2024/02/23 10:16:20;;;;;;;;;;;;;;;16.97;45.67;100669.97;5032400;28;1304;-54
2024/02/23 10:18:47;;;;;;;;;;;;;;;16.30;47.17;100662.63;5035313;28;1156;-53
2024/02/23 10:21:12;;;;;;;;;;;;;;;16.10;47.73;100662.59;5033837;28;1199;-53
2024/02/23 10:23:38;;;;;;;;;;;;;;;15.89;48.63;100657.09;5035933;28;1191;-51
2024/02/23 10:26:04;;;;;;;;;;;;;;;15.70;48.91;100656.75;5034987;28;1234;-52
2024/02/23 10:28:31;;;;;;;;;;;;;;;15.62;49.31;100663.56;5032114;28;1222;-54
2024/02/23 10:30:56;;;;;;;;;;;;;;;15.66;49.27;100661.13;5035626;28;1973;-53
2024/02/23 10:33:22;;;;;;;;;;;;;;;17.22;45.45;100660.81;5034676;28;1243;-51
2024/02/23 10:35:48;;;;;;;;;;;;;;;17.15;45.28;100654.81;5027459;28;1108;-52
2024/02/23 10:38:13;;;;;;;;;;;;;;;16.46;47.26;100659.88;5033265;28;1132;-51
2024/02/23 10:40:42;;;;;;;;;;;;;;;16.05;47.95;100645.03;5031501;28;1785;-54
2024/02/23 10:43:10;;;;;;;;;;;;;;;15.92;48.33;100640.06;5031192;28;1029;-49
2024/02/23 10:45:36;;;;;;;;;;;;;;;15.69;49.05;100638.66;5034447;28;1418;-53
2024/02/23 10:48:02;;;;;;;;;;;;;;;15.65;49.28;100640.28;5034659;28;1064;-50
2024/02/23 10:50:28;;;;;;;;;;;;;;;16.64;46.77;100634.59;5034268;28;1215;-55
2024/02/23 10:52:53;;;;;;;;;;;;;;;17.60;44.34;100634.53;5035066;28;1914;-54
2024/02/23 10:55:19;;;;;;;;;;;;;;;16.59;46.61;100631.84;5035648;28;1313;-51
2024/02/23 10:57:47;;;;;;;;;;;;;;;16.16;47.92;100637.66;5031398;28;1028;-53
2024/02/23 11:00:13;;;;;;;;;;;;;;;15.97;48.44;100631.88;5038033;28;1179;-55
2024/02/23 11:02:45;;;;;;;;;;;;;;;15.76;48.66;100635.66;5039032;28;1191;-55
2024/02/23 11:05:12;;;;;;;;;;;;;;;15.71;48.91;100629.06;5031543;28;1100;-55
2024/02/23 11:07:40;;;;;;;;;;;;;;;16.72;46.68;100639.50;5027013;28;1166;-52
2024/02/23 11:10:06;;;;;;;;;;;;;;;17.82;44.14;100636.03;5039668;28;1071;-55
2024/02/23 11:12:33;;;;;;;;;;;;;;;16.87;46.23;100635.06;5038660;28;1913;-57
2024/02/23 11:15:00;;;;;;;;;;;;;;;16.36;47.51;100623.09;5038390;28;1168;-57
2024/02/23 11:17:32;;;;;;;;;;;;;;;16.10;48.40;100630.50;5037765;28;1282;-56
2024/02/23 11:19:58;;;;;;;;;;;;;;;15.88;48.90;100617.88;5023176;28;1246;-57
2024/02/23 11:22:25;;;;;;;;;;;;;;;15.72;49.33;100619.75;5024022;28;1556;-54
2024/02/23 11:24:51;;;;;;;;;;;;;;;15.62;49.54;100627.13;5029176;28;1145;-55
2024/02/23 11:27:19;;;;;;;;;;;;;;;15.54;49.56;100622.97;5033025;28;1393;-57
2024/02/23 11:29:45;;;;;;;;;;;;;;;16.80;46.82;100610.66;5030591;28;1407;-54
2024/02/23 11:32:14;;;;;;;;;;;;;;;17.76;44.13;100616.00;5033541;28;1970;-54
2024/02/23 11:34:40;;;;;;;;;;;;;;;16.70;46.78;100605.19;5035604;28;1203;-54
2024/02/23 11:37:11;;;;;;;;;;;;;;;16.23;48.07;100604.47;5037902;28;1451;-51
2024/02/23 11:39:37;;;;;;;;;;;;;;;16.07;48.46;100598.13;5038598;28;1166;-53
2024/02/23 11:42:04;;;;;;;;;;;;;;;15.80;48.92;100592.94;5038515;28;1211;-54
2024/02/23 11:44:29;;;;;;;;;;;;;;;15.72;49.25;100592.34;5038343;28;1160;-51
2024/02/23 11:46:55;;;;;;;;;;;;;;;15.64;49.28;100597.53;5038737;28;1207;-55
2024/02/23 11:49:20;;;;;;;;;;;;;;;16.45;47.68;100593.16;5038883;28;1066;-53
2024/02/23 11:51:46;;;;;;;;;;;;;;;17.50;44.99;100592.53;5037151;28;1913;-49
2024/02/23 11:54:12;;;;;;;;;;;;;;;16.53;47.08;100581.63;5069450;28;1265;-50
2024/02/23 11:56:37;;;;;;;;;;;;;;;16.10;48.33;100591.28;5037671;28;1115;-52
2024/02/23 11:59:03;;;;;;;;;;;;;;;15.91;48.81;100595.38;5036010;28;1289;-53
2024/02/23 12:01:29;;;;;;;;;;;;;;;15.78;49.14;100590.44;5037469;28;1096;-53
2024/02/23 12:03:55;;;;;;;;;;;;;;;15.68;49.22;100591.25;5038149;28;1270;-49
2024/02/23 12:06:21;;;;;;;;;;;;;;;15.70;49.33;100589.03;5038336;28;1332;-52
2024/02/23 12:08:47;;;;;;;;;;;;;;;17.18;45.77;100588.28;5038543;28;1234;-52
2024/02/23 12:11:13;;;;;;;;;;;;;;;17.21;45.32;100588.56;5034664;28;1914;-54
2024/02/23 12:13:39;;;;;;;;;;;;;;;16.47;47.42;100580.00;5036507;28;1195;-49
2024/02/23 12:16:07;;;;;;;;;;;;;;;16.17;48.01;100581.69;5036064;28;1241;-53
2024/02/23 12:18:33;;;;;;;;;;;;;;;15.92;48.70;100582.50;5035162;28;1231;-51
2024/02/23 12:21:04;;;;;;;;;;;;;;;15.82;49.01;100587.97;5037025;28;1202;-53
2024/02/23 12:23:42;;;;;;;;;;;;;;;15.66;49.75;100587.94;5062495;28;1047;-54
2024/02/23 12:26:08;;;;;;;;;;;;;;;16.64;47.44;100589.84;5035214;28;1164;-51
2024/02/23 12:28:34;;;;;;;;;;;;;;;17.61;44.71;100586.69;5038280;28;904;-53
2024/02/23 12:31:00;;;;;;;;;;;;;;;16.64;46.82;100585.16;5033838;28;1958;-53
2024/02/23 12:33:32;;;;;;;;;;;;;;;16.15;48.15;100583.88;5026289;28;1284;-51
2024/02/23 12:35:58;;;;;;;;;;;;;;;16.02;48.73;100587.16;5037047;28;1064;-57
2024/02/23 12:38:24;;;;;;;;;;;;;;;15.76;49.31;100591.78;5038042;28;1117;-57
2024/02/23 12:40:50;;;;;;;;;;;;;;;15.67;49.63;100595.06;5030429;28;946;-55